Putnam, Illinois
Current Conditions -  °F | °C
As of 12:10 PM on Thursday 30 Oct 2014 (Local Time) from KC75 Reporting Station
Overcast Overcast  
Wind Chill: 47°   Ceiling: 8000
Heat Index: 47°   Visibility: 10mi
Dew Point: 35°   Wind: 3mph
Humidity: 65%   Direction: 250°WSW
Pressure: 30.11"   Gusts: NA
Location:  41.18°N, 89.4°W
Report Text: KC75 301710Z AUTO 25003KT 10SM OVC080 08/02 A3011 RMK AO2 T00810018
Loading
Personal Weather Stations






























Interactive Weather Map
Tropical Storm Tracking
New forecast layout! Learn more

10-Day Weather Forecast

Advertisements
Track Severe Weather on mobile